KRNC/RNC METAR and TAF weather

Enter ICAO airport designator
Station Type Date Time Source
KRNC METAR 2019/08/23 18:35 UTC NOAA

KRNC 231835Z AUTO 35007KT 10SM CLR 29/23 A3003 RMK A01


Station Type Date Time Source
KRNC Decoded METAR 2019/08/23 18:35 UTC NOAA

Station name not available
Aug 23, 2019 - 02:35 PM EDT / 2019.08.23 1835 UTC
Wind: from the N (350 degrees) at 8 MPH (7 KT):0
Visibility: 10 mile(s):0
Sky conditions: clear
Temperature: 84 F (29 C)
Dew Point: 73 F (23 C)
Relative Humidity: 70%
Pressure (altimeter): 30.03 in. Hg (1016 hPa)
ob: KRNC 231835Z AUTO 35007KT 10SM CLR 29/23 A3003 RMK A01
cycle: 18

Station Type Date Time Source
KRNC TAF 2009/08/31 19:45 UTC NOAA

METAR KRNC 311945Z AUTO 35008KT 10SM CLR 25/12 A3011
RMK AO1 T02500116 $

Example: see airport list